Time;durP1;ratioP1;P1;durP2;ratioP2;P2;SDS_P1;SDS_P2;PMS_P1;PMS_P2;Temp;Humidity;BMP_temperature;BMP_pressure;BME280_temperature;BME280_humidity;BME280_pressure;Samples;Min_cycle;Max_cycle;Signal;HPM_P1;HPM_P2
2024/01/17 00:02:04;;;;;;;24.75;10.50;;;;;;;-2.59;99.08;100053.94;4856871;29;20061;-75
2024/01/17 00:04:29;;;;;;;22.40;8.73;;;;;;;-2.60;98.95;100049.59;4856282;29;20026;-73
2024/01/17 00:06:57;;;;;;;24.63;10.20;;;;;;;-2.57;98.25;100051.28;4854011;29;20029;-70
2024/01/17 00:09:23;;;;;;;24.85;9.95;;;;;;;-2.57;98.74;100052.13;4838413;29;20259;-70
2024/01/17 00:11:52;;;;;;;27.08;9.77;;;;;;;-2.57;98.57;100051.28;4836656;29;20025;-70
2024/01/17 00:14:17;;;;;;;22.98;9.75;;;;;;;-2.57;98.74;100046.84;4853307;29;20029;-70
2024/01/17 00:16:43;;;;;;;23.98;8.82;;;;;;;-2.57;98.78;100041.59;4861568;29;20496;-71
2024/01/17 00:19:08;;;;;;;23.83;9.25;;;;;;;-2.60;98.41;100028.53;4858945;29;20025;-69
2024/01/17 00:21:33;;;;;;;23.20;9.05;;;;;;;-2.61;98.63;100024.19;4850653;29;20221;-71
2024/01/17 00:23:59;;;;;;;23.58;9.27;;;;;;;-2.61;98.42;100015.44;4857614;29;20511;-71
2024/01/17 00:26:24;;;;;;;22.48;9.80;;;;;;;-2.63;98.58;100005.81;4835166;29;20327;-70
2024/01/17 00:28:50;;;;;;;24.85;9.60;;;;;;;-2.62;98.59;100001.44;4855121;29;20028;-70
2024/01/17 00:31:15;;;;;;;23.85;9.77;;;;;;;-2.60;98.45;99998.75;4855631;29;20057;-69
2024/01/17 00:33:40;;;;;;;22.27;9.35;;;;;;;-2.60;98.18;99991.72;4838263;29;20410;-70
2024/01/17 00:36:06;;;;;;;22.95;9.90;;;;;;;-2.63;98.03;99986.56;4858439;29;20081;-70
2024/01/17 00:38:31;;;;;;;21.55;9.45;;;;;;;-2.67;97.71;99977.88;4836792;29;20037;-69
2024/01/17 00:40:57;;;;;;;22.45;9.13;;;;;;;-2.68;98.15;99976.19;4854169;29;20363;-70
2024/01/17 00:43:22;;;;;;;21.42;9.18;;;;;;;-2.71;97.74;99972.78;4850872;29;20076;-70
2024/01/17 00:45:48;;;;;;;21.52;10.02;;;;;;;-2.76;97.33;99970.31;4853799;29;20025;-70
2024/01/17 00:48:13;;;;;;;23.50;9.73;;;;;;;-2.82;97.96;99960.84;4842089;29;20545;-70
2024/01/17 00:50:39;;;;;;;22.38;9.25;;;;;;;-2.83;98.32;99967.00;4856261;29;20025;-69
2024/01/17 00:53:05;;;;;;;22.92;9.00;;;;;;;-2.81;98.09;99957.31;4843612;29;20025;-70
2024/01/17 00:55:31;;;;;;;22.83;10.00;;;;;;;-2.79;98.58;99946.75;4853660;29;20089;-69
2024/01/17 00:57:56;;;;;;;24.52;9.23;;;;;;;-2.77;98.43;99941.44;4842683;29;20486;-69
2024/01/17 01:00:21;;;;;;;24.15;8.88;;;;;;;-2.75;97.94;99931.72;4838028;29;20049;-69
2024/01/17 01:02:46;;;;;;;23.30;8.65;;;;;;;-2.74;98.34;99928.19;4855594;29;20032;-70
2024/01/17 01:05:12;;;;;;;22.70;9.68;;;;;;;-2.75;98.37;99931.72;4855750;29;20161;-70
2024/01/17 01:07:37;;;;;;;24.60;8.77;;;;;;;-2.77;98.47;99923.03;4837718;29;20170;-70
2024/01/17 01:10:03;;;;;;;24.95;9.57;;;;;;;-2.78;98.53;99927.44;4856107;29;20033;-69
2024/01/17 01:12:28;;;;;;;24.08;9.63;;;;;;;-2.81;97.98;99923.13;4853227;29;20029;-71
2024/01/17 01:14:54;;;;;;;20.83;8.93;;;;;;;-2.84;98.28;99931.13;4858798;29;20053;-74
2024/01/17 01:17:19;;;;;;;23.23;8.88;;;;;;;-2.83;98.51;99916.19;4853547;29;20406;-74
2024/01/17 01:19:45;;;;;;;26.20;9.55;;;;;;;-2.81;98.07;99922.28;4853077;29;20053;-72
2024/01/17 01:22:10;;;;;;;20.42;8.00;;;;;;;-2.81;98.42;99917.03;4845656;29;20426;-74
2024/01/17 01:24:35;;;;;;;22.63;9.23;;;;;;;-2.80;98.07;99916.09;4843385;29;20029;-74
2024/01/17 01:27:01;;;;;;;24.88;9.32;;;;;;;-2.82;97.61;99905.63;4853141;29;20041;-74
2024/01/17 01:29:26;;;;;;;23.08;9.65;;;;;;;-2.81;98.33;99898.63;4856200;29;20035;-74
2024/01/17 01:31:51;;;;;;;22.95;9.15;;;;;;;-2.82;97.97;99904.78;4842125;29;20044;-74
2024/01/17 01:34:17;;;;;;;22.00;8.88;;;;;;;-2.81;97.98;99898.63;4853203;29;20128;-75
2024/01/17 01:36:42;;;;;;;23.00;8.93;;;;;;;-2.80;97.90;99905.56;4852583;29;20033;-75
2024/01/17 01:39:07;;;;;;;24.00;9.55;;;;;;;-2.77;97.92;99902.00;4842143;29;20052;-74
2024/01/17 01:41:32;;;;;;;23.95;10.07;;;;;;;-2.75;97.49;99895.78;4842435;29;20025;-74
2024/01/17 01:43:58;;;;;;;22.23;8.57;;;;;;;-2.74;97.12;99901.88;4851840;29;20489;-73
2024/01/17 01:46:28;;;;;;;20.80;8.15;;;;;;;-2.76;97.28;99898.47;4847533;29;20040;-74
2024/01/17 01:48:53;;;;;;;;;;;;;;;-2.72;98.34;99898.28;4843018;29;20409;-74
2024/01/17 01:51:19;;;;;;;23.65;8.93;;;;;;;-2.80;97.56;99902.94;4852413;29;19916;-74
2024/01/17 01:53:48;;;;;;;27.42;10.68;;;;;;;-2.86;96.83;99901.38;4835797;29;20406;-74
2024/01/17 01:56:17;;;;;;;25.10;8.90;;;;;;;-2.87;98.00;99896.16;4836174;29;20116;-74
2024/01/17 01:58:46;;;;;;;21.67;8.63;;;;;;;-2.85;97.63;99894.38;4851812;29;20382;-74
2024/01/17 02:01:14;;;;;;;19.88;7.35;;;;;;;-2.82;97.58;99889.84;4850033;29;20062;-72
2024/01/17 02:03:43;;;;;;;20.52;8.48;;;;;;;-2.82;97.74;99889.84;4835495;29;20055;-70
2024/01/17 02:06:08;;;;;;;22.33;8.10;;;;;;;-2.79;97.79;99888.03;4838799;29;20041;-70
2024/01/17 02:08:34;;;;;;;22.80;8.93;;;;;;;-2.79;97.86;99875.75;4853488;29;20121;-70
2024/01/17 02:10:59;;;;;;;26.58;8.57;;;;;;;-2.79;97.19;99873.13;4840379;29;20416;-69
2024/01/17 02:13:25;;;;;;;21.92;9.55;;;;;;;-2.79;97.36;99872.28;4849521;29;20037;-70
2024/01/17 02:15:50;;;;;;;22.30;7.65;;;;;;;-2.78;97.23;99868.69;4839059;29;20036;-69
2024/01/17 02:18:16;;;;;;;21.15;7.93;;;;;;;-2.79;97.39;99869.63;4851368;29;20040;-70
2024/01/17 02:20:41;;;;;;;25.20;9.00;;;;;;;-2.77;96.92;99862.53;4850661;29;20037;-70
2024/01/17 02:23:26;;;;;;;22.65;7.68;;;;;;;-2.73;97.21;99856.28;4836091;29;20041;-70
2024/01/17 02:25:53;;;;;;;20.58;8.18;;;;;;;-2.75;97.69;99855.44;4841106;29;20044;-70
2024/01/17 02:28:18;;;;;;;23.55;8.90;;;;;;;-2.74;96.97;99850.13;4852496;29;20037;-69
2024/01/17 02:30:44;;;;;;;26.45;9.32;;;;;;;-2.75;97.45;99842.28;4840748;29;20030;-70
2024/01/17 02:33:10;;;;;;;21.23;8.25;;;;;;;-2.73;97.07;99835.22;4849899;29;20042;-70
2024/01/17 02:35:37;;;;;;;24.15;7.90;;;;;;;-2.76;97.05;99823.03;4841131;29;20041;-70
2024/01/17 02:38:02;;;;;;;19.95;9.05;;;;;;;-2.75;96.98;99822.13;4855995;29;20037;-70
2024/01/17 02:40:27;;;;;;;22.33;8.68;;;;;;;-2.76;96.72;99823.03;4853964;29;20411;-70
2024/01/17 02:42:54;;;;;;;21.65;8.38;;;;;;;-2.72;97.26;99813.28;4853664;29;20034;-72
2024/01/17 02:45:19;;;;;;;21.48;8.05;;;;;;;-2.73;96.99;99809.78;4855138;29;20034;-70
2024/01/17 02:47:44;;;;;;;21.27;7.70;;;;;;;-2.74;97.07;99799.31;4853487;29;20044;-70
2024/01/17 02:50:14;;;;;;;23.75;9.27;;;;;;;-2.76;97.08;99794.13;4852536;29;20043;-69
2024/01/17 02:52:40;;;;;;;22.15;7.22;;;;;;;-2.77;96.92;99791.53;4851079;29;20029;-72
2024/01/17 02:55:05;;;;;;;22.23;8.52;;;;;;;-2.78;97.01;99797.69;4851983;29;20058;-70
2024/01/17 02:57:31;;;;;;;21.17;7.85;;;;;;;-2.77;96.63;99786.28;4850354;29;20041;-70
2024/01/17 02:59:56;;;;;;;23.73;8.45;;;;;;;-2.77;96.42;99781.88;4849523;29;20114;-70
2024/01/17 03:02:21;;;;;;;20.40;7.68;;;;;;;-2.76;96.75;99766.97;4849663;29;20052;-70
2024/01/17 03:04:47;;;;;;;24.42;8.27;;;;;;;-2.76;96.65;99775.72;4853889;29;20500;-73
2024/01/17 03:07:13;;;;;;;20.83;7.70;;;;;;;-2.76;96.84;99761.72;4851151;29;20030;-70
2024/01/17 03:09:40;;;;;;;22.58;7.85;;;;;;;-2.75;97.31;99763.41;4851559;29;20040;-70
2024/01/17 03:12:05;;;;;;;27.45;8.48;;;;;;;-2.75;96.43;99763.41;4836665;29;20074;-70
2024/01/17 03:14:31;;;;;;;22.80;8.88;;;;;;;-2.77;95.58;99763.47;4852140;29;20025;-72
2024/01/17 03:16:58;;;;;;;21.42;8.05;;;;;;;-2.79;96.32;99769.72;4854345;29;20129;-74
2024/01/17 03:19:23;;;;;;;24.48;7.55;;;;;;;-2.79;96.37;99772.34;4848965;29;20201;-75
2024/01/17 03:21:50;;;;;;;20.50;7.63;;;;;;;-2.77;96.48;99758.19;4837418;29;20113;-74
2024/01/17 03:24:15;;;;;;;20.50;7.97;;;;;;;-2.79;96.16;99761.81;4849021;29;20021;-74
2024/01/17 03:26:41;;;;;;;21.40;7.82;;;;;;;-2.79;95.85;99751.31;4852798;29;20052;-74
2024/01/17 03:29:06;;;;;;;21.42;8.52;;;;;;;-2.82;95.68;99753.13;4853505;29;20029;-74
2024/01/17 03:31:31;;;;;;;18.80;6.53;;;;;;;-2.80;95.87;99750.44;4853597;29;20435;-74
2024/01/17 03:33:57;;;;;;;29.88;8.57;;;;;;;-2.82;96.09;99736.50;4850938;29;20137;-74
2024/01/17 03:36:22;;;;;;;21.75;7.60;;;;;;;-2.81;95.92;99725.91;4847636;29;20408;-75
2024/01/17 03:38:47;;;;;;;21.25;7.82;;;;;;;-2.82;95.88;99720.72;4851234;29;20057;-75
2024/01/17 03:41:12;;;;;;;22.27;8.23;;;;;;;-2.83;96.39;99706.69;4840460;29;20450;-74
2024/01/17 03:43:38;;;;;;;19.60;7.85;;;;;;;-2.81;96.14;99704.03;4853557;29;20028;-74
2024/01/17 03:46:03;;;;;;;22.67;7.93;;;;;;;-2.82;96.12;99690.00;4855515;29;20488;-75
2024/01/17 03:48:28;;;;;;;22.83;7.55;;;;;;;-2.84;96.29;99686.59;4855209;29;20061;-74
2024/01/17 03:50:54;;;;;;;22.00;7.38;;;;;;;-2.86;95.73;99677.03;4853126;29;20045;-74
2024/01/17 03:53:19;;;;;;;21.63;7.25;;;;;;;-2.84;96.47;99667.31;4853092;29;20409;-74
2024/01/17 03:55:44;;;;;;;22.60;7.63;;;;;;;-2.85;96.28;99663.84;4849245;29;20577;-75
2024/01/17 03:58:10;;;;;;;20.60;6.90;;;;;;;-2.84;96.25;99652.41;4838411;29;20110;-74
2024/01/17 04:00:35;;;;;;;22.83;7.97;;;;;;;-2.82;96.08;99645.31;4855692;29;20112;-74
2024/01/17 04:03:00;;;;;;;19.67;7.90;;;;;;;-2.82;96.29;99640.06;4855771;29;20029;-74
2024/01/17 04:05:25;;;;;;;20.40;8.05;;;;;;;-2.79;96.02;99635.59;4852784;29;20033;-74
2024/01/17 04:07:51;;;;;;;20.52;7.25;;;;;;;-2.77;96.02;99633.75;4851982;29;20064;-74
2024/01/17 04:10:16;;;;;;;23.05;8.45;;;;;;;-2.77;95.73;99625.88;4834544;29;20030;-74
2024/01/17 04:12:41;;;;;;;20.58;7.43;;;;;;;-2.75;96.28;99610.88;4849198;29;20104;-75
2024/01/17 04:15:07;;;;;;;22.17;8.18;;;;;;;-2.76;96.02;99607.41;4846888;29;20057;-74
2024/01/17 04:17:33;;;;;;;20.40;7.35;;;;;;;-2.76;95.65;99603.94;4836628;29;20029;-74
2024/01/17 04:19:58;;;;;;;21.73;8.20;;;;;;;-2.76;95.60;99589.00;4849865;29;20036;-74
2024/01/17 04:22:23;;;;;;;21.98;8.45;;;;;;;-2.76;95.22;99589.00;4839726;29;20033;-74
2024/01/17 04:24:49;;;;;;;28.95;8.63;;;;;;;-2.75;95.44;99590.72;4831062;29;20114;-72
2024/01/17 04:27:14;;;;;;;20.63;7.38;;;;;;;-2.73;95.23;99582.78;4834135;29;20046;-72
2024/01/17 04:29:39;;;;;;;23.73;7.13;;;;;;;-2.74;95.11;99581.06;4851663;29;20493;-72
2024/01/17 04:32:05;;;;;;;19.25;6.68;;;;;;;-2.72;95.27;99573.97;4850010;29;20481;-73
2024/01/17 04:34:30;;;;;;;21.65;6.85;;;;;;;-2.74;94.98;99562.66;4849981;29;20114;-73
2024/01/17 04:36:55;;;;;;;19.63;6.78;;;;;;;-2.77;94.85;99557.50;4849335;29;20091;-72
2024/01/17 04:39:20;;;;;;;21.90;6.90;;;;;;;-2.78;95.07;99553.16;4837315;29;20049;-72
2024/01/17 04:41:46;;;;;;;18.42;6.43;;;;;;;-2.78;94.71;99553.16;4834433;29;20087;-72
2024/01/17 04:44:12;;;;;;;19.75;6.70;;;;;;;-2.77;95.45;99549.63;4835530;29;20033;-72
2024/01/17 04:46:37;;;;;;;22.98;7.25;;;;;;;-2.76;95.43;99549.56;4853167;29;20120;-72
2024/01/17 04:49:03;;;;;;;22.00;8.27;;;;;;;-2.75;95.20;99543.38;4837431;29;20053;-72
2024/01/17 04:51:28;;;;;;;18.27;6.07;;;;;;;-2.73;95.51;99540.69;4853476;29;20037;-72
2024/01/17 04:53:54;;;;;;;22.70;6.47;;;;;;;-2.73;95.67;99533.66;4851729;29;20037;-72
2024/01/17 04:56:19;;;;;;;19.35;8.10;;;;;;;-2.72;94.91;99521.38;4851981;29;20515;-72
2024/01/17 04:58:45;;;;;;;20.25;5.85;;;;;;;-2.76;94.46;99504.00;4837050;29;20041;-72
2024/01/17 05:01:10;;;;;;;21.00;7.35;;;;;;;-2.81;94.67;99507.66;4834901;29;20465;-72
2024/01/17 05:03:36;;;;;;;24.83;7.68;;;;;;;-2.81;94.66;99507.66;4848763;29;20025;-72
2024/01/17 05:06:02;;;;;;;19.33;7.18;;;;;;;-2.81;94.50;99507.66;4846485;29;20562;-72
2024/01/17 05:08:28;;;;;;;21.23;7.78;;;;;;;-2.79;94.92;99502.34;4852792;29;20374;-73
2024/01/17 05:10:55;;;;;;;19.15;6.22;;;;;;;-2.79;94.90;99493.63;4832368;29;20067;-72
2024/01/17 05:13:20;;;;;;;21.63;6.68;;;;;;;-2.79;94.68;99493.63;4835756;29;20041;-72
2024/01/17 05:15:46;;;;;;;20.38;7.43;;;;;;;-2.80;94.20;99487.47;4852629;29;20043;-72
2024/01/17 05:18:11;;;;;;;21.35;7.90;;;;;;;-2.79;94.92;99494.47;4850491;29;20565;-72
2024/01/17 05:20:37;;;;;;;21.92;7.68;;;;;;;-2.77;95.13;99487.34;4851105;29;20332;-72
2024/01/17 05:23:03;;;;;;;19.50;7.03;;;;;;;-2.76;95.27;99477.72;4833519;29;20044;-73
2024/01/17 05:25:28;;;;;;;23.95;7.78;;;;;;;-2.77;95.39;99470.72;4848239;29;20041;-72
2024/01/17 05:27:54;;;;;;;21.98;8.10;;;;;;;-2.73;94.66;99472.31;4834772;29;20132;-72
2024/01/17 05:30:20;;;;;;;19.13;6.63;;;;;;;-2.72;94.63;99474.03;4841890;29;21745;-72
2024/01/17 05:32:46;;;;;;;22.60;6.82;;;;;;;-2.74;94.53;99462.72;4852330;29;20083;-72
2024/01/17 05:35:12;;;;;;;18.15;6.68;;;;;;;-2.76;95.00;99461.94;4837227;29;20045;-74
2024/01/17 05:37:40;;;;;;;19.88;7.50;;;;;;;-2.78;95.52;99455.88;4851986;29;20041;-75
2024/01/17 05:40:08;;;;;;;22.63;7.68;;;;;;;-2.77;95.76;99454.97;4834114;29;20137;-74
2024/01/17 05:42:34;;;;;;;21.60;7.20;;;;;;;-2.80;95.65;99442.78;4851543;29;20059;-74
2024/01/17 05:44:59;;;;;;;22.23;6.85;;;;;;;-2.78;95.40;99440.09;4831027;29;20033;-74
2024/01/17 05:47:24;;;;;;;21.00;6.78;;;;;;;-2.82;95.29;99429.69;4852450;29;20029;-75
2024/01/17 05:49:49;;;;;;;18.63;6.20;;;;;;;-2.81;95.46;99439.31;4833222;29;20065;-74
2024/01/17 05:52:15;;;;;;;19.77;6.93;;;;;;;-2.77;95.48;99440.03;4834794;29;20029;-75
2024/01/17 05:54:40;;;;;;;16.98;6.15;;;;;;;-2.76;95.45;99436.47;4830892;29;20110;-74
2024/01/17 05:57:06;;;;;;;20.45;7.45;;;;;;;-2.74;95.77;99426.75;4852223;29;20057;-74
2024/01/17 05:59:31;;;;;;;21.27;7.18;;;;;;;-2.71;95.43;99428.41;4850628;29;20140;-74
2024/01/17 06:01:56;;;;;;;20.52;7.70;;;;;;;-2.71;94.88;99433.66;4854071;29;20128;-75
2024/01/17 06:04:22;;;;;;;19.75;6.78;;;;;;;-2.71;95.46;99426.66;4853185;29;20034;-75
2024/01/17 06:06:47;;;;;;;20.17;7.22;;;;;;;-2.69;95.89;99421.31;4839767;29;20034;-75
2024/01/17 06:09:14;;;;;;;21.80;7.55;;;;;;;-2.68;95.55;99408.09;4851666;29;20033;-74
2024/01/17 06:11:39;;;;;;;21.13;7.35;;;;;;;-2.66;96.13;99405.41;4853632;29;20391;-75
2024/01/17 06:14:04;;;;;;;19.00;6.80;;;;;;;-2.64;96.26;99409.69;4848517;29;20045;-74
2024/01/17 06:16:30;;;;;;;21.17;8.10;;;;;;;-2.61;95.21;99407.84;4838877;29;20117;-75
2024/01/17 06:18:59;;;;;;;22.15;8.02;;;;;;;-2.63;94.94;99397.38;4852757;29;20033;-75
2024/01/17 06:21:24;;;;;;;23.23;7.05;;;;;;;-2.62;94.53;99396.47;4855720;29;20435;-75
2024/01/17 06:23:51;;;;;;;22.02;7.50;;;;;;;-2.63;94.69;99387.72;4843863;29;20080;-74
2024/01/17 06:26:16;;;;;;;19.23;6.32;;;;;;;-2.58;95.53;99390.13;4839278;29;20101;-75
2024/01/17 06:28:42;;;;;;;21.42;7.85;;;;;;;-2.58;95.06;99382.25;4854148;29;20439;-75
2024/01/17 06:31:08;;;;;;;22.25;8.68;;;;;;;-2.58;94.94;99382.25;4854244;29;20041;-74
2024/01/17 06:33:33;;;;;;;22.90;7.88;;;;;;;-2.56;94.48;99390.06;4841189;29;20045;-75
2024/01/17 06:35:59;;;;;;;21.70;9.07;;;;;;;-2.57;94.72;99380.50;4854404;29;20110;-75
2024/01/17 06:38:24;;;;;;;22.58;7.95;;;;;;;-2.55;94.93;99362.84;4853489;29;20032;-74
2024/01/17 06:40:50;;;;;;;21.50;8.63;;;;;;;-2.55;94.79;99361.06;4841178;29;20049;-74
2024/01/17 06:43:16;;;;;;;21.58;9.18;;;;;;;-2.57;94.58;99359.44;4841861;29;20048;-75
2024/01/17 06:45:41;;;;;;;22.08;7.82;;;;;;;-2.56;93.64;99355.88;4854404;29;20034;-74
2024/01/17 06:48:07;;;;;;;23.08;7.93;;;;;;;-2.56;94.21;99350.63;4852007;29;20105;-75
2024/01/17 06:50:32;;;;;;;20.23;8.20;;;;;;;-2.59;94.30;99362.16;4853439;29;20029;-75
2024/01/17 06:52:57;;;;;;;21.45;8.35;;;;;;;-2.58;94.22;99355.94;4843462;29;20268;-75
2024/01/17 06:55:23;;;;;;;25.63;9.32;;;;;;;-2.59;93.99;99353.38;4844734;29;20029;-75
2024/01/17 06:57:48;;;;;;;22.83;7.53;;;;;;;-2.57;94.38;99346.31;4857156;29;20134;-74
2024/01/17 07:00:14;;;;;;;21.92;8.25;;;;;;;-2.56;94.42;99343.59;4857088;29;20041;-74
2024/01/17 07:02:39;;;;;;;21.25;8.63;;;;;;;-2.53;94.37;99327.69;4841914;29;20451;-75
2024/01/17 07:05:06;;;;;;;23.77;9.98;;;;;;;-2.52;94.15;99320.63;4855089;29;20081;-74
2024/01/17 07:07:31;;;;;;;22.05;8.13;;;;;;;-2.51;94.48;99319.72;4850883;29;20044;-75
2024/01/17 07:09:57;;;;;;;20.80;7.88;;;;;;;-2.51;94.39;99314.47;4854391;29;20057;-75
2024/01/17 07:12:22;;;;;;;24.70;9.32;;;;;;;-2.51;94.53;99315.31;4859104;29;20034;-74
2024/01/17 07:14:48;;;;;;;22.42;8.20;;;;;;;-2.50;94.11;99309.13;4857119;29;20034;-75
2024/01/17 07:17:14;;;;;;;21.50;7.55;;;;;;;-2.51;94.03;99302.16;4851703;29;20166;-74
2024/01/17 07:19:39;;;;;;;21.95;8.43;;;;;;;-2.51;94.72;99296.88;4857103;29;20123;-75
2024/01/17 07:22:06;;;;;;;22.25;9.02;;;;;;;-2.49;94.03;99300.31;4850287;29;20622;-75
2024/01/17 07:24:31;;;;;;;23.85;8.20;;;;;;;-2.49;94.65;99289.81;4850168;29;20192;-75
2024/01/17 07:26:56;;;;;;;31.08;9.23;;;;;;;-2.52;93.93;99287.31;4833572;29;20178;-75
2024/01/17 07:29:22;;;;;;;21.10;7.55;;;;;;;-2.52;93.54;99282.06;4840514;29;20082;-75
2024/01/17 07:31:47;;;;;;;20.67;8.20;;;;;;;-2.51;93.56;99270.59;4846579;29;20048;-75
2024/01/17 07:34:12;;;;;;;19.77;7.53;;;;;;;-2.48;93.70;99266.97;4856320;29;20301;-75
2024/01/17 07:36:38;;;;;;;20.40;8.95;;;;;;;-2.43;93.31;99267.63;4852845;29;20478;-74
2024/01/17 07:39:04;;;;;;;22.98;7.93;;;;;;;-2.44;92.52;99254.56;4845796;29;20116;-75
2024/01/17 07:41:30;;;;;;;22.38;7.57;;;;;;;-2.45;92.51;99248.41;4853680;29;20033;-75
2024/01/17 07:43:55;;;;;;;25.17;7.78;;;;;;;-2.49;91.81;99245.09;4850234;29;20041;-75
2024/01/17 07:46:21;;;;;;;22.50;7.28;;;;;;;-2.50;91.75;99242.53;4851537;29;20037;-74
2024/01/17 07:48:46;;;;;;;21.85;8.10;;;;;;;-2.50;92.08;99238.09;4852019;29;20045;-75
2024/01/17 07:51:11;;;;;;;22.15;7.28;;;;;;;-2.44;92.17;99230.88;4850935;29;20112;-74
2024/01/17 07:53:37;;;;;;;19.10;7.82;;;;;;;-2.40;92.26;99229.78;4855568;29;20428;-74
2024/01/17 07:56:04;;;;;;;25.38;9.88;;;;;;;-2.41;91.86;99218.41;4844421;29;20033;-74
2024/01/17 07:58:29;;;;;;;22.55;7.70;;;;;;;-2.38;91.92;99213.00;4858922;29;20050;-74
2024/01/17 08:00:55;;;;;;;23.13;7.88;;;;;;;-2.37;91.50;99212.09;4853588;29;20045;-74
2024/01/17 08:03:21;;;;;;;21.90;7.65;;;;;;;-2.34;91.02;99213.75;4860120;29;20037;-74
2024/01/17 08:05:46;;;;;;;30.88;7.97;;;;;;;-2.29;90.89;99211.72;4858475;29;20041;-72
2024/01/17 08:08:12;;;;;;;21.15;7.38;;;;;;;-2.26;90.89;99205.47;4856744;29;20504;-74
2024/01/17 08:10:38;;;;;;;20.27;7.70;;;;;;;-2.20;91.61;99206.03;4846591;29;20044;-73
2024/01/17 08:13:04;;;;;;;21.67;7.90;;;;;;;-2.19;91.03;99193.72;4856517;29;20036;-73
2024/01/17 08:15:30;;;;;;;19.58;6.80;;;;;;;-2.17;91.35;99195.34;4852606;29;20038;-74
2024/01/17 08:17:55;;;;;;;22.23;7.80;;;;;;;-2.14;91.48;99196.97;4858509;29;20033;-73
2024/01/17 08:20:21;;;;;;;20.77;7.80;;;;;;;-2.11;90.34;99194.19;4840701;29;20062;-74
2024/01/17 08:22:47;;;;;;;23.55;8.07;;;;;;;-2.12;90.21;99193.38;4857428;29;20115;-72
2024/01/17 08:25:13;;;;;;;22.23;7.57;;;;;;;-2.06;90.68;99201.91;4846734;29;20025;-73
2024/01/17 08:27:39;;;;;;;22.80;7.72;;;;;;;-2.02;91.29;99191.16;4857180;29;20324;-74
2024/01/17 08:30:09;;;;;;;21.98;8.00;;;;;;;-1.97;90.98;99177.75;4847966;29;20029;-72
2024/01/17 08:32:35;;;;;;;20.95;7.15;;;;;;;-1.94;90.44;99182.88;4857502;29;20066;-72
2024/01/17 08:35:00;;;;;;;20.27;6.63;;;;;;;-1.91;90.70;99173.97;4846774;29;20049;-73
2024/01/17 08:37:26;;;;;;;22.80;7.70;;;;;;;-1.90;90.53;99168.63;4840010;29;20033;-73
2024/01/17 08:39:51;;;;;;;21.60;9.07;;;;;;;-1.85;90.47;99163.13;4856917;29;20075;-74
2024/01/17 08:42:16;;;;;;;21.67;7.90;;;;;;;-1.81;91.01;99155.00;4850854;29;20036;-74
2024/01/17 08:44:42;;;;;;;22.65;8.75;;;;;;;-1.77;91.14;99156.56;4852274;29;20021;-74
2024/01/17 08:47:08;;;;;;;19.77;7.60;;;;;;;-1.76;90.95;99154.78;4855930;29;20211;-73
2024/01/17 08:49:37;;;;;;;28.17;8.25;;;;;;;-1.76;90.00;99147.75;4843944;29;20457;-74
2024/01/17 08:52:03;;;;;;;28.88;8.80;;;;;;;-1.70;90.46;99137.81;4857000;29;20041;-73
2024/01/17 08:54:29;;;;;;;22.23;7.57;;;;;;;-1.68;90.08;99130.69;4855201;29;20036;-73
2024/01/17 08:56:54;;;;;;;23.60;8.15;;;;;;;-1.69;89.38;99129.00;4855093;29;20085;-72
2024/01/17 08:59:19;;;;;;;29.35;9.80;;;;;;;-1.70;89.49;99122.00;4858025;29;20034;-73
2024/01/17 09:01:46;;;;;;;23.55;9.15;;;;;;;-1.68;89.88;99121.00;4845026;29;20040;-73
2024/01/17 09:04:11;;;;;;;23.05;9.45;;;;;;;-1.67;87.95;99117.47;4844103;29;20033;-74
2024/01/17 09:06:37;;;;;;;25.58;8.63;;;;;;;-1.66;88.11;99107.75;4839182;29;20047;-73
2024/01/17 09:09:03;;;;;;;20.00;7.32;;;;;;;-1.65;87.72;99110.31;4848369;29;20533;-72
2024/01/17 09:11:29;;;;;;;20.83;7.07;;;;;;;-1.65;87.96;99110.31;4850656;29;20056;-73
2024/01/17 09:13:55;;;;;;;25.00;8.40;;;;;;;-1.63;88.34;99107.59;4844265;29;20506;-73
2024/01/17 09:16:20;;;;;;;20.80;8.45;;;;;;;-1.61;87.21;99101.34;4832949;29;20486;-73
2024/01/17 09:18:46;;;;;;;19.85;7.60;;;;;;;-1.58;86.64;99100.34;4847999;29;20037;-73
2024/01/17 09:21:11;;;;;;;21.42;7.47;;;;;;;-1.58;86.74;99098.53;4834573;29;20027;-73
2024/01/17 09:23:37;;;;;;;19.55;8.20;;;;;;;-1.56;86.99;99102.88;4852092;29;20037;-73
2024/01/17 09:26:03;;;;;;;26.85;9.02;;;;;;;-1.56;87.68;99100.25;4835112;29;20037;-72
2024/01/17 09:28:28;;;;;;;22.23;8.75;;;;;;;-1.50;88.45;99092.03;4851022;29;20048;-73
2024/01/17 09:30:53;;;;;;;24.88;8.35;;;;;;;-1.45;87.68;99089.97;4835929;29;20033;-72
2024/01/17 09:33:19;;;;;;;23.25;10.38;;;;;;;-1.45;87.12;99088.22;4830231;29;20084;-73
2024/01/17 09:35:44;;;;;;;21.08;8.15;;;;;;;-1.43;88.36;99082.88;4834946;29;20367;-73
2024/01/17 09:38:12;;;;;;;21.60;8.45;;;;;;;-1.41;88.25;99091.53;4817370;29;20026;-73
2024/01/17 09:40:37;;;;;;;21.17;8.50;;;;;;;-1.39;87.43;99092.31;4834840;29;20502;-73
2024/01/17 09:43:04;;;;;;;23.13;8.23;;;;;;;-1.35;88.08;99087.72;4832522;29;20102;-73
2024/01/17 09:45:29;;;;;;;24.77;8.38;;;;;;;-1.34;87.09;99084.16;4835702;29;20022;-72
2024/01/17 09:47:56;;;;;;;22.63;7.88;;;;;;;-1.32;87.88;99083.16;4836922;29;20397;-72
2024/01/17 09:50:21;;;;;;;19.77;7.85;;;;;;;-1.30;87.58;99083.06;4818783;29;20032;-73
2024/01/17 09:52:48;;;;;;;21.50;8.32;;;;;;;-1.29;87.09;99079.50;4821937;29;20041;-73
2024/01/17 09:55:16;;;;;;;25.52;9.43;;;;;;;-1.27;87.20;99069.72;4820411;29;20025;-73
2024/01/17 09:57:49;;;;;;;23.15;8.55;;;;;;;-1.26;86.26;99072.28;4816015;29;20113;-72
2024/01/17 10:00:15;;;;;;;25.40;9.05;;;;;;;-1.27;86.04;99061.81;4816586;29;20022;-73
2024/01/17 10:02:42;;;;;;;24.15;9.25;;;;;;;-1.28;86.03;99060.13;4819710;29;20066;-73
2024/01/17 10:05:11;;;;;;;25.23;8.85;;;;;;;-1.25;86.66;99059.94;4835067;29;20033;-73
2024/01/17 10:07:37;;;;;;;24.42;10.05;;;;;;;-1.24;86.51;99061.66;4816504;29;20404;-73
2024/01/17 10:10:04;;;;;;;21.48;9.02;;;;;;;-1.23;87.67;99055.44;4816076;29;20260;-73
2024/01/17 10:12:30;;;;;;;22.92;8.48;;;;;;;-1.18;86.71;99058.69;4834509;29;20724;-73
2024/01/17 10:14:55;;;;;;;22.85;9.63;;;;;;;-1.16;86.46;99053.34;4830482;29;20419;-71
2024/01/17 10:17:20;;;;;;;21.63;8.98;;;;;;;-1.13;86.00;99054.03;4816155;29;20022;-71
2024/01/17 10:19:45;;;;;;;23.33;9.07;;;;;;;-1.11;86.18;99056.59;4834986;29;20428;-71
2024/01/17 10:22:11;;;;;;;23.90;9.18;;;;;;;-1.10;85.55;99053.88;4833229;29;20111;-70
2024/01/17 10:24:38;;;;;;;23.15;9.65;;;;;;;-1.10;85.65;99045.97;4817237;29;20040;-71
2024/01/17 10:27:06;;;;;;;22.88;9.02;;;;;;;-1.07;86.35;99043.16;4816503;29;20052;-71
2024/01/17 10:29:32;;;;;;;26.83;10.25;;;;;;;-1.06;85.09;99041.34;4831326;29;20033;-71
2024/01/17 10:31:59;;;;;;;22.33;8.80;;;;;;;-1.10;84.48;99042.44;4817434;29;20462;-72
2024/01/17 10:34:27;;;;;;;24.88;9.50;;;;;;;-1.10;84.79;99034.53;4833593;29;20045;-70
2024/01/17 10:36:53;;;;;;;22.00;8.75;;;;;;;-1.13;84.92;99027.69;4815044;29;20034;-71
2024/01/17 10:39:22;;;;;;;23.30;9.52;;;;;;;-1.11;86.33;99025.78;4833246;29;20434;-70
2024/01/17 10:41:54;;;;;;;25.25;9.68;;;;;;;-1.04;85.68;99026.28;4817901;29;20090;-71
2024/01/17 10:44:25;;;;;;;22.65;9.52;;;;;;;-1.02;85.82;99020.97;4834640;29;20105;-73
2024/01/17 10:46:51;;;;;;;23.15;10.00;;;;;;;-1.01;86.36;99012.09;4814981;29;20028;-71
2024/01/17 10:49:20;;;;;;;26.83;10.93;;;;;;;-0.97;86.21;99011.84;4830587;29;20038;-71
2024/01/17 10:51:56;;;;;;;23.40;10.00;;;;;;;-0.97;86.54;99000.44;4817619;29;20038;-71
2024/01/17 10:54:27;;;;;;;24.42;10.05;;;;;;;-0.95;86.75;98998.56;4828541;29;20081;-71
2024/01/17 10:56:54;;;;;;;23.23;9.55;;;;;;;-0.91;86.28;98995.69;4832675;29;20026;-71
2024/01/17 10:59:22;;;;;;;29.13;11.07;;;;;;;-0.89;85.18;98998.25;4836401;29;20423;-71
2024/01/17 11:01:51;;;;;;;22.33;10.75;;;;;;;-0.91;85.65;98984.28;4832468;29;20479;-71
2024/01/17 11:04:29;;;;;;;24.25;11.07;;;;;;;-0.92;84.92;98993.16;4835505;29;20030;-72
2024/01/17 11:06:56;;;;;;;23.75;9.93;;;;;;;-0.93;85.76;98989.63;4813603;29;20112;-71
2024/01/17 11:09:26;;;;;;;24.70;11.13;;;;;;;-0.86;85.26;98976.09;4833360;29;21487;-71
2024/01/17 11:11:51;;;;;;;25.05;11.27;;;;;;;-0.85;85.36;98978.66;4833128;29;20095;-71
2024/01/17 11:14:18;;;;;;;25.45;10.93;;;;;;;-0.85;84.91;98969.91;4816089;29;20455;-70
2024/01/17 11:16:48;;;;;;;25.30;10.70;;;;;;;-0.80;85.90;98970.50;4813054;29;20213;-72
2024/01/17 11:19:15;;;;;;;27.85;10.95;;;;;;;-0.83;84.76;98963.59;4839365;29;20501;-70